createdAt,value
2022-09-07T00:01:31.634Z,10.43
2022-09-07T00:06:35.157Z,7.47
2022-09-07T00:11:38.639Z,6.90
2022-09-07T00:16:43.765Z,6.28
2022-09-07T00:21:47.273Z,8.85
2022-09-07T00:26:50.780Z,8.23
2022-09-07T00:31:55.705Z,10.00
2022-09-07T00:36:59.245Z,7.90
2022-09-07T00:42:02.927Z,7.43
2022-09-07T00:47:12.869Z,10.73
2022-09-07T00:52:18.127Z,8.38
2022-09-07T00:57:22.214Z,8.02
2022-09-07T01:02:27.734Z,5.43
2022-09-07T01:07:31.484Z,6.70
2022-09-07T01:12:35.021Z,6.88
2022-09-07T01:17:53.198Z,13.43
2022-09-07T01:23:26.067Z,6.18
2022-09-07T01:28:33.452Z,5.95
2022-09-07T01:33:50.730Z,4.78
2022-09-07T01:38:57.161Z,7.03
2022-09-07T01:44:07.101Z,5.88
2022-09-07T01:49:15.906Z,5.50
2022-09-07T01:54:26.147Z,5.32
2022-09-07T01:59:33.053Z,6.30
2022-09-07T02:04:40.850Z,9.73
2022-09-07T02:09:52.610Z,7.32
2022-09-07T02:15:02.870Z,4.93
2022-09-07T02:20:11.640Z,3.83
2022-09-07T02:25:19.774Z,4.13
2022-09-07T02:30:24.644Z,4.93
2022-09-07T02:35:28.203Z,5.28
2022-09-07T02:40:32.070Z,5.88
2022-09-07T02:45:49.821Z,5.03
2022-09-07T02:51:05.776Z,5.43
2022-09-07T02:56:23.237Z,5.80
2022-09-07T03:01:37.092Z,6.25
2022-09-07T03:06:44.165Z,5.78
2022-09-07T03:11:47.971Z,6.72
2022-09-07T03:16:57.169Z,7.18
2022-09-07T03:22:00.939Z,6.07
2022-09-07T03:27:04.549Z,8.00
2022-09-07T03:32:09.546Z,6.55
2022-09-07T03:37:13.048Z,5.90
2022-09-07T03:42:16.569Z,5.15
2022-09-07T03:47:21.364Z,6.20
2022-09-07T03:52:24.844Z,8.75
2022-09-07T03:57:28.585Z,7.38
2022-09-07T04:02:33.476Z,6.95
2022-09-07T04:07:37.101Z,12.02
2022-09-07T04:12:40.593Z,8.63
2022-09-07T04:17:45.485Z,7.28
2022-09-07T04:22:53.689Z,5.93
2022-09-07T04:27:58.244Z,12.77
2022-09-07T04:33:03.122Z,6.22
2022-09-07T04:38:07.081Z,7.93
2022-09-07T04:43:13.024Z,12.20
2022-09-07T04:48:17.915Z,8.27
2022-09-07T04:53:21.425Z,15.50
2022-09-07T04:58:24.927Z,12.30
2022-09-07T05:03:30.305Z,10.43
2022-09-07T05:08:38.033Z,9.98
2022-09-07T05:13:41.716Z,9.02
2022-09-07T05:18:50.991Z,21.27
2022-09-07T05:23:56.483Z,10.38
2022-09-07T05:39:31.862Z,15.60
2022-09-07T05:49:47.287Z,19.50
2022-09-07T05:54:50.748Z,14.93
2022-09-07T05:59:54.270Z,24.70
2022-09-07T06:04:59.232Z,18.35
2022-09-07T06:15:26.332Z,22.27
2022-09-07T06:20:31.191Z,23.83
2022-09-07T06:25:34.875Z,20.80
2022-09-07T06:30:38.386Z,24.60
2022-09-07T06:35:43.339Z,22.35
2022-09-07T06:40:46.836Z,21.05
2022-09-07T06:45:55.332Z,23.45
2022-09-07T06:51:02.860Z,22.58
2022-09-07T06:56:08.393Z,22.83
2022-09-07T07:01:15.387Z,25.67
2022-09-07T07:06:21.097Z,26.75
2022-09-07T07:11:24.652Z,26.10
2022-09-07T07:16:28.463Z,27.48
2022-09-07T07:21:48.573Z,24.55
2022-09-07T07:26:57.129Z,45.60
2022-09-07T07:32:00.772Z,20.67
2022-09-07T07:37:05.738Z,24.90
2022-09-07T07:42:09.337Z,26.63
2022-09-07T07:47:12.947Z,27.25
2022-09-07T07:57:41.719Z,29.48
2022-09-07T08:02:45.347Z,27.40
2022-09-07T08:07:50.359Z,27.63
2022-09-07T08:12:54.542Z,28.48
2022-09-07T08:17:58.003Z,26.85
2022-09-07T08:23:02.908Z,26.90
2022-09-07T08:28:06.861Z,20.83
2022-09-07T08:33:10.386Z,26.25
2022-09-07T08:38:20.431Z,22.13
2022-09-07T08:43:49.357Z,27.13
2022-09-07T08:48:53.548Z,33.70
2022-09-07T08:54:00.045Z,31.58
2022-09-07T08:59:14.481Z,26.42
2022-09-07T09:04:23.969Z,27.60
2022-09-07T09:09:42.337Z,30.73
2022-09-07T09:14:58.899Z,24.60
2022-09-07T09:20:14.151Z,32.65
2022-09-07T09:25:22.051Z,30.25
2022-09-07T09:30:26.647Z,28.58
2022-09-07T09:35:35.240Z,23.92
2022-09-07T09:40:40.437Z,29.33
2022-09-07T09:56:43.748Z,25.13
2022-09-07T10:07:22.004Z,28.50
2022-09-07T10:12:32.288Z,22.95
2022-09-07T10:17:38.971Z,21.75
2022-09-07T10:22:48.482Z,23.17
2022-09-07T10:28:05.675Z,22.27
2022-09-07T10:33:15.542Z,21.88
2022-09-07T10:38:21.487Z,25.25
2022-09-07T10:43:40.285Z,24.27
2022-09-07T10:48:52.377Z,19.13
2022-09-07T11:05:16.355Z,14.35
2022-09-07T11:10:30.820Z,12.48
2022-09-07T11:15:41.972Z,13.73
2022-09-07T11:20:54.882Z,12.98
2022-09-07T11:26:05.361Z,12.13
2022-09-07T11:31:19.853Z,11.18
2022-09-07T11:36:26.264Z,12.48
2022-09-07T11:41:32.111Z,13.80
2022-09-07T11:46:44.546Z,8.70
2022-09-07T11:51:54.207Z,9.75
2022-09-07T11:57:08.965Z,11.63
2022-09-07T12:02:58.799Z,12.57
2022-09-07T12:08:24.473Z,10.23
2022-09-07T12:13:51.635Z,9.05
2022-09-07T12:19:15.294Z,10.63
2022-09-07T12:24:39.960Z,11.73
2022-09-07T12:29:46.637Z,8.32
2022-09-07T12:34:58.065Z,9.32
2022-09-07T12:40:34.906Z,21.30
2022-09-07T12:45:51.394Z,8.75
2022-09-07T12:51:02.666Z,8.13
2022-09-07T12:56:32.998Z,9.65
2022-09-07T13:01:46.719Z,9.63
2022-09-07T13:07:09.476Z,10.20
2022-09-07T13:17:57.490Z,9.48
2022-09-07T13:23:21.321Z,8.25
2022-09-07T13:28:30.015Z,8.60
2022-09-07T13:33:48.916Z,10.40
2022-09-07T13:38:55.658Z,7.53
2022-09-07T13:44:02.115Z,7.40
2022-09-07T13:49:19.102Z,9.88
2022-09-07T13:54:32.589Z,9.48
2022-09-07T13:59:37.268Z,9.48
2022-09-07T14:04:44.401Z,6.47
2022-09-07T14:09:50.538Z,9.00
2022-09-07T14:15:09.672Z,7.70
2022-09-07T14:20:15.655Z,10.40
2022-09-07T14:25:22.316Z,10.57
2022-09-07T14:30:28.297Z,7.28
2022-09-07T14:35:34.733Z,7.93
2022-09-07T14:40:40.087Z,6.40
2022-09-07T14:45:43.652Z,7.10
2022-09-07T14:51:05.456Z,6.03
2022-09-07T14:56:21.965Z,8.77
2022-09-07T15:01:42.351Z,5.80
2022-09-07T15:07:02.676Z,7.72
2022-09-07T15:22:47.622Z,21.92
2022-09-07T15:27:53.365Z,10.27
2022-09-07T15:32:57.699Z,5.88
2022-09-07T15:38:04.459Z,4.60
2022-09-07T15:43:19.881Z,6.07
2022-09-07T15:48:26.122Z,5.40
2022-09-07T15:58:55.657Z,6.03
2022-09-07T16:04:00.025Z,4.35
2022-09-07T16:09:06.129Z,5.63
2022-09-07T16:14:12.496Z,7.53
2022-09-07T16:19:20.604Z,6.97
2022-09-07T16:24:24.440Z,5.28
2022-09-07T16:29:29.384Z,2.97
2022-09-07T16:34:33.005Z,5.38
2022-09-07T16:39:37.253Z,4.75
2022-09-07T16:44:42.229Z,8.30
2022-09-07T16:49:46.066Z,6.82
2022-09-07T16:54:51.222Z,4.53
2022-09-07T16:59:56.632Z,5.22
2022-09-07T17:05:00.212Z,4.85
2022-09-07T17:10:04.233Z,4.32
2022-09-07T17:15:10.756Z,18.48
2022-09-07T17:20:14.692Z,9.52
2022-09-07T17:25:18.364Z,6.68
2022-09-07T17:30:24.715Z,7.07
2022-09-07T17:35:32.178Z,4.65
2022-09-07T17:40:38.887Z,4.63
2022-09-07T17:45:43.893Z,6.93
2022-09-07T17:50:47.598Z,6.13
2022-09-07T17:55:51.307Z,5.32
2022-09-07T18:01:03.777Z,5.13
2022-09-07T18:06:08.395Z,6.88
2022-09-07T18:16:39.640Z,9.40
2022-09-07T18:21:44.709Z,7.38
2022-09-07T18:26:50.896Z,8.55
2022-09-07T18:31:57.051Z,8.48
2022-09-07T18:37:01.007Z,5.82
2022-09-07T18:42:05.197Z,4.03
2022-09-07T18:47:17.455Z,5.05
2022-09-07T18:57:49.132Z,6.07
2022-09-07T19:02:54.153Z,6.95
2022-09-07T19:07:59.660Z,4.57
2022-09-07T19:13:03.461Z,4.80
2022-09-07T19:18:09.430Z,5.50
2022-09-07T19:23:15.341Z,8.35
2022-09-07T19:28:19.258Z,6.55
2022-09-07T19:33:24.153Z,5.75
2022-09-07T19:38:28.278Z,8.88
2022-09-07T19:43:33.695Z,4.95
2022-09-07T19:48:39.256Z,24.92
2022-09-07T19:53:44.659Z,9.10
2022-09-07T19:58:49.717Z,6.18
2022-09-07T20:03:59.049Z,4.70
2022-09-07T20:09:02.813Z,4.43
2022-09-07T20:14:07.636Z,12.18
2022-09-07T20:19:15.189Z,11.32
2022-09-07T20:24:22.893Z,6.22
2022-09-07T20:29:28.328Z,8.70
2022-09-07T20:34:33.784Z,4.75
2022-09-07T20:39:39.577Z,8.50
2022-09-07T20:44:43.397Z,6.57
2022-09-07T20:49:48.650Z,5.80
2022-09-07T20:54:52.212Z,8.90
2022-09-07T20:59:55.832Z,7.22
2022-09-07T21:05:00.837Z,5.40
2022-09-07T21:10:06.919Z,7.22
2022-09-07T21:15:11.024Z,9.85
2022-09-07T21:20:16.013Z,5.63
2022-09-07T21:25:19.520Z,10.50
2022-09-07T21:30:23.402Z,7.45
2022-09-07T21:35:28.256Z,10.25
2022-09-07T21:40:31.745Z,7.38
2022-09-07T21:45:35.247Z,7.75
2022-09-07T21:50:40.235Z,7.22
2022-09-07T21:55:43.738Z,5.43
2022-09-07T22:00:47.628Z,9.60
2022-09-07T22:05:52.758Z,6.45
2022-09-07T22:10:56.250Z,8.18
2022-09-07T22:15:59.827Z,7.03
2022-09-07T22:21:07.266Z,7.53
2022-09-07T22:26:11.059Z,8.43
2022-09-07T22:31:17.247Z,7.13
2022-09-07T22:36:24.013Z,7.80
2022-09-07T22:41:29.331Z,9.68
2022-09-07T22:46:37.069Z,7.28
2022-09-07T22:51:41.972Z,6.85
2022-09-07T22:56:45.479Z,9.68
2022-09-07T23:01:49.472Z,6.68
2022-09-07T23:06:54.327Z,16.40
2022-09-07T23:11:57.810Z,7.07
2022-09-07T23:17:01.383Z,11.73
2022-09-07T23:22:06.388Z,10.10
2022-09-07T23:27:09.849Z,10.20
2022-09-07T23:32:13.285Z,14.00
2022-09-07T23:37:18.079Z,7.40
2022-09-07T23:42:21.555Z,6.00
2022-09-07T23:47:26.585Z,9.90
2022-09-07T23:52:31.535Z,8.02
2022-09-07T23:57:36.387Z,8.88
